Main page
METAR-TAF:

METAR-TAF

Airports :

Mykonos International Airport

Mykonos, Greece

latitude: 37-26-09N, longitude: 025-20-45E, elevation: 123 m

Current weather observation

The report was made 8 hours and 5 minutes ago, at 17:50 UTC
Wind 11 kt from the North
Temperature 15°C
Humidity 67%
Pressure 1017 hPa
Visibility 10 km or more
Few clouds at a height of 1000 ft
Scattered clouds at a height of 2000 ft

METAR: LGMK 081750Z 36011KT 9999 FEW010 SCT020 15/09 Q1017

Time: 03:55 (01:55 UTC)

Forecast

The report was made 2 hours and 55 minutes ago, at 23:00 UTC
Forecast valid from 09 at 00 UTC to 09 at 09 UTC
Wind 14 kt from the North
Visibility 10 km or more
Few clouds at a height of 1000 ft
Scattered clouds at a height of 2000 ft

TAF: LGMK 082300Z 0900/0909 36014KT 9999 FEW010 SCT020

Weather observations and forecasts of more than 4000 airports (METAR and TAF reports).

The available stations are represented by yellow and red dots on the map.

Hover mouse over dot to see the name of the station.

Then click to see weather observations and forecasts.

To change the map : click on the green buttons with a black cross to zoom in, on the green button with a dash to zoom out, or on the green arrows for adjacent maps.


METAR-TAF: